< < Back
Terminal Aerodrome Forecast


Current Version              Previous Versions:   1  2  3  4  5  6  7  8  9  

Terminal Aerodrome Forecast

968
FTUS42 KFFC 252321
TAFMCN
TAF
KMCN 252321Z 2600/2624 15007KT 6SM -SHRA SCT035 BKN060
      TEMPO 2600/2603 VRB12G18KT 3SM TSRA BR BKN025CB
     FM260300 13005KT P6SM VCSH SCT025 BKN040
     FM260500 13004KT P6SM VCSH OVC018
     FM260800 14004KT P6SM OVC007
     FM261500 15005KT P6SM OVC012
     FM261700 16007KT P6SM -SHRA OVC025
      TEMPO 2620/2624 3SM TSRA BR OVC015CB=



Latest METAR

383
SAUS80 KWBC 260100
MTRMCN
METAR KMCN 260053Z AUTO 00000KT 10SM FEW065 23/22 A3019 RMK AO2 SLP220
T02330217 TSNO


USA.gov is the U.S. government's official web portal to all federal, state and local government web resources and services.